Luther, Illinois
Current Conditions -  °F | °C
As of 12:35 AM on Tuesday 21 Oct 2014 (Local Time) from KAAA Reporting Station
Clear Clear  
Wind Chill: 49°   Ceiling: Unl
Heat Index: 49°   Visibility: 10mi
Dew Point: 43°   Wind: 3mph
Humidity: 82%   Direction: 10°N
Pressure: 30"   Gusts: NA
Location:  40.1812°N, 89.7163°W
Report Text: KAAA 210535Z AUTO 01003KT 10SM CLR 09/06 A3000 RMK AO2 T00920062
Loading
Personal Weather Stations






























Interactive Weather Map
Tropical Storm Tracking
New forecast layout! Learn more

10-Day Weather Forecast

Advertisements
Track Severe Weather on mobile